Time;durP1;ratioP1;P1;durP2;ratioP2;P2;SDS_P1;SDS_P2;PMS_P1;PMS_P2;Temp;Humidity;BMP_temperature;BMP_pressure;BME280_temperature;BME280_humidity;BME280_pressure;Samples;Min_cycle;Max_cycle;Signal;HPM_P1;HPM_P2
2022/08/30 00:01:08;;;;;;;;;;;;;;;23.95;47.76;101579.81;5143175;27;19923;-40
2022/08/30 00:03:22;;;;;;;;;;;;;;;23.94;47.86;101567.84;5121371;27;20022;-39
2022/08/30 00:05:48;;;;;;;;;;;;;;;23.94;47.76;101567.84;5139499;27;19976;-39
2022/08/30 00:08:14;;;;;;;;;;;;;;;23.96;47.87;101564.75;5114759;27;19927;-38
2022/08/30 00:10:40;;;;;;;;;;;;;;;23.95;48.00;101563.94;5122885;27;19977;-39
2022/08/30 00:13:06;;;;;;;;;;;;;;;23.95;47.68;101571.47;5137202;27;20052;-38
2022/08/30 00:15:32;;;;;;;;;;;;;;;23.94;47.84;101570.63;5115939;27;19923;-38
2022/08/30 00:17:57;;;;;;;;;;;;;;;23.95;47.76;101574.25;5114747;27;19924;-39
2022/08/30 00:20:24;;;;;;;;;;;;;;;23.95;47.72;101565.91;5137009;27;19931;-38
2022/08/30 00:22:50;;;;;;;;;;;;;;;23.95;47.76;101572.28;5119765;27;20026;-39
2022/08/30 00:25:16;;;;;;;;;;;;;;;23.95;47.90;101569.50;5138940;27;19924;-38
2022/08/30 00:27:42;;;;;;;;;;;;;;;23.95;47.74;101569.50;5137886;27;19931;-39
2022/08/30 00:30:08;;;;;;;;;;;;;;;23.95;47.83;101574.25;5115151;27;20016;-38
2022/08/30 00:32:34;;;;;;;;;;;;;;;23.94;47.71;101567.84;5135442;27;20030;-39
2022/08/30 00:34:59;;;;;;;;;;;;;;;23.95;47.78;101569.50;5137580;27;20277;-39
2022/08/30 00:37:25;;;;;;;;;;;;;;;23.95;47.77;101563.13;5136830;27;19930;-39
2022/08/30 00:39:50;;;;;;;;;;;;;;;23.95;47.72;101577.03;5137339;27;19923;-38
2022/08/30 00:42:18;;;;;;;;;;;;;;;23.96;47.83;101578.66;5142586;27;19923;-38
2022/08/30 00:44:44;;;;;;;;;;;;;;;23.95;47.79;101588.16;5135717;27;20418;-38
2022/08/30 00:47:10;;;;;;;;;;;;;;;23.94;47.75;101581.75;5116662;27;19923;-39
2022/08/30 00:49:35;;;;;;;;;;;;;;;23.95;47.78;101588.16;5136992;27;19923;-39
2022/08/30 00:52:01;;;;;;;;;;;;;;;23.95;47.95;101585.38;5135307;27;20364;-39
2022/08/30 00:54:26;;;;;;;;;;;;;;;23.95;47.82;101588.16;5135226;27;19930;-39
2022/08/30 00:56:52;;;;;;;;;;;;;;;23.95;47.95;101588.97;5118372;27;20008;-39
2022/08/30 00:59:18;;;;;;;;;;;;;;;23.94;47.92;101580.94;5136117;27;20377;-40
2022/08/30 01:01:43;;;;;;;;;;;;;;;23.94;47.91;101584.53;5117934;27;19924;-39
2022/08/30 01:04:09;;;;;;;;;;;;;;;23.95;47.83;101588.16;5137412;27;20392;-39
2022/08/30 01:06:35;;;;;;;;;;;;;;;23.94;47.91;101598.47;5131961;27;19957;-38
2022/08/30 01:09:02;;;;;;;;;;;;;;;23.94;47.89;101594.84;5140182;27;19927;-39
2022/08/30 01:11:27;;;;;;;;;;;;;;;23.93;47.87;101599.59;5117214;27;20002;-39
2022/08/30 01:13:53;;;;;;;;;;;;;;;23.94;47.92;101590.09;5117598;27;19923;-39
2022/08/30 01:16:18;;;;;;;;;;;;;;;23.93;47.98;101596.81;5134831;27;19930;-39
2022/08/30 01:18:46;;;;;;;;;;;;;;;23.95;47.87;101593.72;5142948;27;19942;-39
2022/08/30 01:21:19;;;;;;;;;;;;;;;23.93;47.93;101591.25;5116249;27;19928;-39
2022/08/30 01:23:46;;;;;;;;;;;;;;;23.93;47.88;101591.25;5137261;27;20334;-39
2022/08/30 01:26:13;;;;;;;;;;;;;;;23.94;47.88;101598.47;5132516;27;19969;-39
2022/08/30 01:28:41;;;;;;;;;;;;;;;23.94;47.95;101597.63;5134708;27;19968;-39
2022/08/30 01:31:07;;;;;;;;;;;;;;;23.94;48.07;101589.28;5137056;27;19931;-39
2022/08/30 01:33:36;;;;;;;;;;;;;;;23.93;47.87;101591.25;5139868;27;20362;-38
2022/08/30 01:36:03;;;;;;;;;;;;;;;23.94;47.88;101587.31;5118964;27;20243;-38
2022/08/30 01:38:32;;;;;;;;;;;;;;;23.94;47.89;101586.50;5124402;27;19959;-39
2022/08/30 01:40:59;;;;;;;;;;;;;;;23.94;47.99;101594.84;5120677;27;20725;-39
2022/08/30 01:43:25;;;;;;;;;;;;;;;23.93;47.98;101596.81;5125085;27;20357;-39
2022/08/30 01:45:50;;;;;;;;;;;;;;;23.93;47.97;101585.69;5142333;27;20022;-39
2022/08/30 01:48:16;;;;;;;;;;;;;;;23.93;47.93;101587.63;5135927;27;19942;-39
2022/08/30 01:50:42;;;;;;;;;;;;;;;23.94;47.95;101592.06;5139560;27;20270;-38
2022/08/30 01:53:08;;;;;;;;;;;;;;;23.94;47.88;101594.84;5138332;27;19931;-39
2022/08/30 01:55:39;;;;;;;;;;;;;;;23.93;47.95;101596.81;5122511;27;19923;-38
2022/08/30 01:58:04;;;;;;;;;;;;;;;23.94;47.80;101597.63;5141187;27;19963;-38
2022/08/30 02:00:30;;;;;;;;;;;;;;;23.93;48.06;101593.19;5140455;27;19923;-39
2022/08/30 02:02:56;;;;;;;;;;;;;;;23.94;47.96;101597.63;5133222;27;19968;-39
2022/08/30 02:05:22;;;;;;;;;;;;;;;23.94;47.91;101605.97;5138177;27;19966;-39
2022/08/30 02:07:47;;;;;;;;;;;;;;;23.93;47.92;101605.16;5135352;27;19973;-38
2022/08/30 02:10:13;;;;;;;;;;;;;;;23.94;48.07;101594.84;5143796;27;20242;-40
2022/08/30 02:12:39;;;;;;;;;;;;;;;23.93;47.93;101596.81;5141837;27;19977;-38
2022/08/30 02:15:05;;;;;;;;;;;;;;;23.94;47.97;101592.88;5139393;27;19931;-39
2022/08/30 02:17:31;;;;;;;;;;;;;;;23.94;48.00;101597.63;5135582;27;19923;-38
2022/08/30 02:19:57;;;;;;;;;;;;;;;23.94;48.05;101592.06;5137832;27;20014;-39
2022/08/30 02:22:23;;;;;;;;;;;;;;;23.93;48.02;101588.47;5141311;27;20303;-39
2022/08/30 02:24:48;;;;;;;;;;;;;;;23.94;48.09;101592.06;5140506;27;21790;-38
2022/08/30 02:27:14;;;;;;;;;;;;;;;23.93;47.94;101596.81;5137277;27;19923;-38
2022/08/30 02:29:39;;;;;;;;;;;;;;;23.93;47.96;101596.81;5140624;27;19931;-38
2022/08/30 02:32:05;;;;;;;;;;;;;;;23.92;47.98;101595.16;5139019;27;20292;-39
2022/08/30 02:34:30;;;;;;;;;;;;;;;23.93;48.08;101594.03;5137270;27;19932;-38
2022/08/30 02:36:56;;;;;;;;;;;;;;;23.94;48.19;101594.84;5135010;27;19931;-38
2022/08/30 02:39:22;;;;;;;;;;;;;;;23.93;48.05;101593.19;5138723;27;19934;-39
2022/08/30 02:41:47;;;;;;;;;;;;;;;23.93;48.09;101587.63;5141354;27;20332;-39
2022/08/30 02:44:13;;;;;;;;;;;;;;;23.93;48.00;101587.63;5143173;27;19931;-39
2022/08/30 02:46:38;;;;;;;;;;;;;;;23.93;48.14;101584.84;5133125;27;19924;-38
2022/08/30 02:49:04;;;;;;;;;;;;;;;23.94;48.10;101580.94;5142362;27;19968;-39
2022/08/30 02:51:50;;;;;;;;;;;;;;;23.92;48.08;101578.47;5107977;27;20316;-39
2022/08/30 02:54:18;;;;;;;;;;;;;;;23.93;48.10;101577.34;5120376;27;19931;-38
2022/08/30 02:56:45;;;;;;;;;;;;;;;23.93;48.18;101577.34;5135962;27;20076;-39
2022/08/30 02:59:11;;;;;;;;;;;;;;;23.92;48.06;101574.81;5140228;27;19966;-39
2022/08/30 03:01:37;;;;;;;;;;;;;;;23.93;48.05;101570.94;5120569;27;19924;-39
2022/08/30 03:04:03;;;;;;;;;;;;;;;23.92;48.02;101567.34;5143787;27;19932;-39
2022/08/30 03:06:29;;;;;;;;;;;;;;;23.93;48.18;101562.59;5133742;27;20304;-39
2022/08/30 03:08:55;;;;;;;;;;;;;;;23.93;48.06;101560.63;5132278;27;19928;-38
2022/08/30 03:11:21;;;;;;;;;;;;;;;23.93;48.24;101565.38;5142329;27;19923;-39
2022/08/30 03:13:49;;;;;;;;;;;;;;;23.93;48.09;101570.94;5139673;27;19967;-39
2022/08/30 03:16:15;;;;;;;;;;;;;;;23.93;48.06;101577.34;5134946;27;20373;-38
2022/08/30 03:18:42;;;;;;;;;;;;;;;23.93;48.10;101576.50;5135897;27;19975;-39
2022/08/30 03:21:08;;;;;;;;;;;;;;;23.92;48.12;101575.69;5120339;27;19962;-38
2022/08/30 03:23:34;;;;;;;;;;;;;;;23.93;48.21;101574.56;5137777;27;19969;-39
2022/08/30 03:25:59;;;;;;;;;;;;;;;23.93;48.02;101568.97;5134599;27;20348;-39
2022/08/30 03:28:25;;;;;;;;;;;;;;;23.92;48.11;101567.34;5137997;27;19934;-39
2022/08/30 03:30:50;;;;;;;;;;;;;;;23.92;48.12;101569.25;5140278;27;19923;-39
2022/08/30 03:33:16;;;;;;;;;;;;;;;23.92;48.12;101567.34;5135184;27;19927;-38
2022/08/30 03:35:45;;;;;;;;;;;;;;;23.92;48.17;101567.34;5140883;27;19930;-38
2022/08/30 03:38:10;;;;;;;;;;;;;;;23.92;48.24;101575.69;5141828;27;19923;-39
2022/08/30 03:40:36;;;;;;;;;;;;;;;23.93;48.18;101562.59;5139852;27;20652;-39
2022/08/30 03:43:03;;;;;;;;;;;;;;;23.93;48.11;101571.75;5140909;27;19948;-38
2022/08/30 03:45:30;;;;;;;;;;;;;;;23.93;48.14;101557.03;5135695;27;19958;-39
2022/08/30 03:47:56;;;;;;;;;;;;;;;23.93;48.14;101562.59;5138686;27;19923;-39
2022/08/30 03:50:21;;;;;;;;;;;;;;;23.93;48.10;101565.38;5137472;27;19931;-39
2022/08/30 03:52:47;;;;;;;;;;;;;;;23.92;48.32;101553.44;5136797;27;19931;-39
2022/08/30 03:55:13;;;;;;;;;;;;;;;23.92;48.09;101550.66;5138183;27;20042;-38
2022/08/30 03:57:40;;;;;;;;;;;;;;;23.92;48.11;101558.13;5133968;27;20030;-38
2022/08/30 04:00:09;;;;;;;;;;;;;;;23.93;48.32;101573.72;5135673;27;19970;-39
2022/08/30 04:02:35;;;;;;;;;;;;;;;23.93;48.18;101571.75;5139600;27;20014;-39
2022/08/30 04:05:00;;;;;;;;;;;;;;;23.92;48.15;101560.91;5137073;27;20303;-38
2022/08/30 04:07:26;;;;;;;;;;;;;;;23.92;48.12;101569.25;5136975;27;19923;-39
2022/08/30 04:09:51;;;;;;;;;;;;;;;23.92;48.31;101569.25;5137168;27;20485;-38
2022/08/30 04:12:17;;;;;;;;;;;;;;;23.91;48.22;101574.00;5135269;27;19931;-38
2022/08/30 04:14:48;;;;;;;;;;;;;;;23.93;48.33;101570.94;5132962;27;20022;-39
2022/08/30 04:17:13;;;;;;;;;;;;;;;23.92;48.22;101572.03;5136834;27;19937;-39
2022/08/30 04:19:39;;;;;;;;;;;;;;;23.92;48.18;101572.03;5138186;27;19932;-39
2022/08/30 04:22:04;;;;;;;;;;;;;;;23.92;48.34;101574.81;5135426;27;19934;-39
2022/08/30 04:24:31;;;;;;;;;;;;;;;23.93;48.30;101579.28;5137345;27;20342;-39
2022/08/30 04:26:57;;;;;;;;;;;;;;;23.92;48.21;101577.59;5133632;27;19974;-40
2022/08/30 04:29:22;;;;;;;;;;;;;;;23.92;48.18;101578.47;5137796;27;19927;-40
2022/08/30 04:31:48;;;;;;;;;;;;;;;23.91;48.19;101573.19;5137532;27;19927;-39
2022/08/30 04:34:14;;;;;;;;;;;;;;;23.92;48.32;101572.91;5138853;27;20000;-39
2022/08/30 04:36:39;;;;;;;;;;;;;;;23.91;49.08;101579.56;5134594;27;20262;-39
2022/08/30 04:39:05;;;;;;;;;;;;;;;23.92;48.38;101578.47;5136253;27;19928;-38
2022/08/30 04:41:30;;;;;;;;;;;;;;;23.92;48.38;101584.03;5137660;27;19924;-39
2022/08/30 04:43:56;;;;;;;;;;;;;;;23.90;48.23;101577.91;5118294;27;21187;-39
2022/08/30 04:46:21;;;;;;;;;;;;;;;23.92;48.22;101589.59;5130732;27;19927;-39
2022/08/30 04:48:47;;;;;;;;;;;;;;;23.91;48.27;101579.56;5135357;27;20341;-39
2022/08/30 04:51:13;;;;;;;;;;;;;;;23.92;48.35;101585.94;5118889;27;20120;-39
2022/08/30 04:53:40;;;;;;;;;;;;;;;23.92;48.35;101588.72;5130036;27;20467;-39
2022/08/30 04:56:07;;;;;;;;;;;;;;;23.92;48.33;101592.38;5133031;27;20017;-39
2022/08/30 04:58:32;;;;;;;;;;;;;;;23.91;48.35;101590.69;5136363;27;20384;-39
2022/08/30 05:00:58;;;;;;;;;;;;;;;23.92;48.47;101597.09;5135251;27;19931;-39
2022/08/30 05:03:23;;;;;;;;;;;;;;;23.92;48.35;101591.53;5135611;27;19954;-39
2022/08/30 05:05:49;;;;;;;;;;;;;;;23.92;48.43;101597.94;5131164;27;20307;-39
2022/08/30 05:08:16;;;;;;;;;;;;;;;23.92;48.41;101599.88;5137636;27;19931;-39
2022/08/30 05:10:42;;;;;;;;;;;;;;;23.92;48.46;101603.50;5111985;27;19958;-39
2022/08/30 05:13:08;;;;;;;;;;;;;;;23.92;48.29;101611.84;5135475;27;20389;-39
2022/08/30 05:15:33;;;;;;;;;;;;;;;23.92;48.77;101600.72;5111236;27;20026;-39
2022/08/30 05:17:59;;;;;;;;;;;;;;;23.91;48.84;101606.56;5133990;27;19942;-39
2022/08/30 05:20:24;;;;;;;;;;;;;;;23.92;48.63;101616.56;5126549;27;19927;-40
2022/08/30 05:22:50;;;;;;;;;;;;;;;23.92;48.83;101605.44;5127499;27;19931;-39
2022/08/30 05:25:20;;;;;;;;;;;;;;;23.91;47.96;101609.34;5132548;27;20413;-39
2022/08/30 05:27:46;;;;;;;;;;;;;;;23.55;48.09;101609.72;5131497;27;20030;-39
2022/08/30 05:30:13;;;;;;;;;;;;;;;23.76;47.83;101613.16;5108074;27;19939;-40
2022/08/30 05:32:38;;;;;;;;;;;;;;;23.83;47.72;101612.78;5126095;27;20005;-39
2022/08/30 05:35:05;;;;;;;;;;;;;;;23.87;48.07;101613.84;5133098;27;20011;-39
2022/08/30 05:37:30;;;;;;;;;;;;;;;23.89;48.20;101617.16;5129962;27;20534;-40
2022/08/30 05:39:56;;;;;;;;;;;;;;;23.91;48.25;101618.50;5131187;27;19924;-40
2022/08/30 05:42:22;;;;;;;;;;;;;;;23.90;48.06;101622.44;5129564;27;19923;-40
2022/08/30 05:44:49;;;;;;;;;;;;;;;23.90;48.18;101608.53;5132250;27;19931;-39
2022/08/30 05:47:15;;;;;;;;;;;;;;;23.91;48.31;101623.25;5131856;27;20029;-41
2022/08/30 05:49:41;;;;;;;;;;;;;;;23.93;48.42;101627.41;5126475;27;19923;-40
2022/08/30 05:52:06;;;;;;;;;;;;;;;23.92;48.34;101617.41;5121358;27;19930;-41
2022/08/30 05:54:32;;;;;;;;;;;;;;;23.94;48.53;101614.31;5119024;27;19924;-42
2022/08/30 05:56:57;;;;;;;;;;;;;;;23.95;48.51;101615.97;5127090;27;19923;-42
2022/08/30 05:59:23;;;;;;;;;;;;;;;23.95;48.63;101613.19;5120217;27;19939;-42
2022/08/30 06:01:48;;;;;;;;;;;;;;;23.95;48.57;101613.19;5104024;27;19961;-40
2022/08/30 06:04:14;;;;;;;;;;;;;;;23.94;48.60;101612.38;5116611;27;19924;-41
2022/08/30 06:06:40;;;;;;;;;;;;;;;23.94;48.39;101606.81;5115442;27;20267;-41
2022/08/30 06:09:06;;;;;;;;;;;;;;;23.96;48.51;101610.13;5123154;27;20018;-39
2022/08/30 06:11:32;;;;;;;;;;;;;;;23.96;48.34;101612.06;5104733;27;19931;-40
2022/08/30 06:13:57;;;;;;;;;;;;;;;23.95;48.48;101611.22;5121769;27;20259;-40
2022/08/30 06:16:23;;;;;;;;;;;;;;;23.95;48.43;101611.22;5124474;27;19930;-40
2022/08/30 06:18:49;;;;;;;;;;;;;;;23.95;48.26;101619.56;5104159;27;19932;-40
2022/08/30 06:21:15;;;;;;;;;;;;;;;23.95;48.28;101624.31;5108422;27;19938;-40
2022/08/30 06:23:41;;;;;;;;;;;;;;;23.94;48.16;101626.28;5107343;27;20240;-43
2022/08/30 06:26:07;;;;;;;;;;;;;;;23.96;48.35;101615.69;5123893;27;20123;-40
2022/08/30 06:28:32;;;;;;;;;;;;;;;23.96;48.36;101620.41;5119501;27;19931;-40
2022/08/30 06:30:58;;;;;;;;;;;;;;;23.97;48.58;101616.53;5105375;27;19974;-40
2022/08/30 06:33:23;;;;;;;;;;;;;;;23.81;48.20;101612.25;5127178;27;19923;-39
2022/08/30 06:35:49;;;;;;;;;;;;;;;23.91;47.87;101612.94;5126952;27;19932;-41
2022/08/30 06:38:25;;;;;;;;;;;;;;;23.93;48.12;101613.50;5113777;27;20034;-40
2022/08/30 06:40:51;;;;;;;;;;;;;;;23.96;48.17;101612.91;5125342;27;20018;-40
2022/08/30 06:43:16;;;;;;;;;;;;;;;23.98;48.18;101615.38;5127712;27;20358;-40
2022/08/30 06:45:42;;;;;;;;;;;;;;;23.98;48.42;101612.59;5120464;27;20368;-44
2022/08/30 06:48:07;;;;;;;;;;;;;;;23.99;48.55;101617.03;5127562;27;19935;-41
2022/08/30 06:50:33;;;;;;;;;;;;;;;23.98;48.66;101610.66;5121833;27;19930;-40
2022/08/30 06:53:04;;;;;;;;;;;;;;;24.01;48.71;101612.03;5120166;27;19927;-40
2022/08/30 06:55:32;;;;;;;;;;;;;;;24.00;48.75;101608.38;5125015;27;19945;-41
2022/08/30 06:57:58;;;;;;;;;;;;;;;24.01;48.68;101606.44;5119243;27;20590;-41
2022/08/30 07:00:24;;;;;;;;;;;;;;;24.02;48.74;101622.84;5098470;27;20026;-41
2022/08/30 07:02:49;;;;;;;;;;;;;;;24.02;48.77;101613.66;5121111;27;19980;-41
2022/08/30 07:05:16;;;;;;;;;;;;;;;24.02;48.79;101611.72;5119721;27;20627;-42
2022/08/30 07:07:44;;;;;;;;;;;;;;;24.02;48.71;101614.50;5118242;27;19949;-39
2022/08/30 07:10:09;;;;;;;;;;;;;;;24.03;48.76;101615.31;5120154;27;20354;-40
2022/08/30 07:12:35;;;;;;;;;;;;;;;24.03;48.88;101615.31;5123520;27;19923;-41
2022/08/30 07:15:02;;;;;;;;;;;;;;;24.01;48.53;101610.06;5121079;27;19939;-40
2022/08/30 07:20:13;;;;;;;;;;;;;;;24.03;48.79;101615.31;5110866;27;20570;-40
2022/08/30 07:22:38;;;;;;;;;;;;;;;24.02;48.60;101613.66;5130131;27;19931;-40
2022/08/30 07:25:04;;;;;;;;;;;;;;;24.02;48.69;101611.72;5130896;27;19923;-41
2022/08/30 07:27:30;;;;;;;;;;;;;;;24.04;48.79;101616.97;5130168;27;19963;-42
2022/08/30 07:29:57;;;;;;;;;;;;;;;24.03;48.83;101620.88;5120264;27;19931;-40
2022/08/30 07:32:23;;;;;;;;;;;;;;;24.03;48.69;101623.66;5121401;27;20052;-42
2022/08/30 07:34:48;;;;;;;;;;;;;;;24.05;48.71;101621.44;5120288;27;20516;-41
2022/08/30 07:37:16;;;;;;;;;;;;;;;24.04;48.75;101619.75;5124125;27;19931;-40
2022/08/30 07:39:43;;;;;;;;;;;;;;;24.04;48.74;101619.75;5117243;27;20400;-40
2022/08/30 07:42:13;;;;;;;;;;;;;;;24.03;48.61;101620.88;5121511;27;19977;-40
2022/08/30 07:44:38;;;;;;;;;;;;;;;23.97;48.63;101622.91;5120235;27;19923;-40
2022/08/30 07:47:04;;;;;;;;;;;;;;;24.03;48.36;101620.88;5119003;27;19923;-41
2022/08/30 07:49:29;;;;;;;;;;;;;;;24.04;48.36;101623.34;5124205;27;19932;-39
2022/08/30 07:51:56;;;;;;;;;;;;;;;24.03;48.52;101627.28;5117291;27;19951;-39
2022/08/30 07:54:21;;;;;;;;;;;;;;;24.04;48.67;101623.34;5100234;27;20022;-40
2022/08/30 07:56:47;;;;;;;;;;;;;;;24.06;48.92;101623.09;5123250;27;19928;-40
2022/08/30 07:59:13;;;;;;;;;;;;;;;24.06;48.73;101627.81;5122278;27;19928;-41
2022/08/30 08:01:38;;;;;;;;;;;;;;;24.06;48.94;101623.09;5120645;27;20339;-40
2022/08/30 08:04:04;;;;;;;;;;;;;;;24.08;48.91;101628.34;5122004;27;19923;-40
2022/08/30 08:06:29;;;;;;;;;;;;;;;24.09;48.86;101630.81;5102657;27;20384;-40
2022/08/30 08:09:01;;;;;;;;;;;;;;;24.09;48.82;101627.19;5118405;27;19977;-40
2022/08/30 08:11:26;;;;;;;;;;;;;;;24.08;48.92;101631.94;5122265;27;19966;-40
2022/08/30 08:13:58;;;;;;;;;;;;;;;24.10;48.93;101628.88;5122339;27;21009;-42
2022/08/30 08:16:24;;;;;;;;;;;;;;;24.10;48.92;101624.16;5115800;27;19931;-39
2022/08/30 08:18:50;;;;;;;;;;;;;;;24.09;48.92;101624.41;5097527;27;19985;-40
2022/08/30 08:21:16;;;;;;;;;;;;;;;24.10;49.10;101624.16;5125372;27;19931;-39
2022/08/30 08:23:42;;;;;;;;;;;;;;;24.11;49.24;101630.53;5114341;27;19938;-44
2022/08/30 08:26:07;;;;;;;;;;;;;;;24.11;49.18;101620.22;5118344;27;19935;-40
2022/08/30 08:28:33;;;;;;;;;;;;;;;24.11;49.05;101628.56;5108609;27;19932;-39
2022/08/30 08:30:58;;;;;;;;;;;;;;;24.12;49.26;101627.44;5118740;27;20393;-40
2022/08/30 08:33:24;;;;;;;;;;;;;;;24.13;49.26;101628.25;5118481;27;19932;-41
2022/08/30 08:35:49;;;;;;;;;;;;;;;24.13;49.13;101631.88;5106458;27;19955;-43
2022/08/30 08:38:15;;;;;;;;;;;;;;;24.13;48.97;101629.09;5113443;27;19931;-40
2022/08/30 08:40:53;;;;;;;;;;;;;;;24.13;49.03;101631.88;5094069;27;19927;-40
2022/08/30 08:43:19;;;;;;;;;;;;;;;24.14;49.24;101635.50;5112727;27;20062;-41
2022/08/30 08:46:05;;;;;;;;;;;;;;;24.14;49.08;101632.72;5112592;27;20022;-41
2022/08/30 08:48:40;;;;;;;;;;;;;;;24.15;49.40;101631.59;5102474;27;19974;-39
2022/08/30 08:54:13;;;;;;;;;;;;;;;24.15;49.32;101632.41;5087985;27;20018;-41
2022/08/30 08:56:38;;;;;;;;;;;;;;;24.15;49.34;101628.81;5121583;27;20018;-39
2022/08/30 08:59:04;;;;;;;;;;;;;;;24.14;49.09;101628.00;5119011;27;19931;-39
2022/08/30 09:01:30;;;;;;;;;;;;;;;24.11;49.11;101627.75;5123728;27;19966;-40
2022/08/30 09:03:56;;;;;;;;;;;;;;;24.15;49.12;101626.84;5107421;27;19932;-40
2022/08/30 09:06:27;;;;;;;;;;;;;;;24.13;48.96;101629.09;5126165;27;20065;-39
2022/08/30 09:08:53;;;;;;;;;;;;;;;24.15;49.04;101626.84;5122641;27;20010;-39
2022/08/30 09:11:21;;;;;;;;;;;;;;;24.13;49.03;101620.75;5108447;27;20412;-39
2022/08/30 09:13:51;;;;;;;;;;;;;;;24.15;49.37;101617.69;5106078;27;19935;-39
2022/08/30 09:16:36;;;;;;;;;;;;;;;24.14;48.84;101622.41;5124139;27;20327;-41
2022/08/30 09:19:02;;;;;;;;;;;;;;;24.15;48.91;101612.13;5113636;27;20010;-39
2022/08/30 09:21:27;;;;;;;;;;;;;;;24.14;48.89;101618.81;5126552;27;20002;-39
2022/08/30 09:23:55;;;;;;;;;;;;;;;24.13;48.96;101615.19;5129346;27;19931;-42
2022/08/30 09:26:29;;;;;;;;;;;;;;;24.16;49.01;101622.13;5106642;27;20433;-40
2022/08/30 09:28:54;;;;;;;;;;;;;;;24.16;49.08;101620.16;5105793;27;20452;-40
2022/08/30 09:31:24;;;;;;;;;;;;;;;24.15;49.17;101626.84;5123195;27;19927;-39
2022/08/30 09:33:53;;;;;;;;;;;;;;;24.15;49.01;101618.50;5106337;27;20022;-40
2022/08/30 09:36:21;;;;;;;;;;;;;;;24.16;49.12;101622.94;5127617;27;19941;-39
2022/08/30 09:38:47;;;;;;;;;;;;;;;24.17;49.15;101620.97;5119341;27;19998;-39
2022/08/30 09:41:33;;;;;;;;;;;;;;;24.17;49.21;101616.25;5117127;27;20022;-39
2022/08/30 09:44:03;;;;;;;;;;;;;;;24.17;49.27;101626.53;5096277;27;20006;-41
2022/08/30 09:46:29;;;;;;;;;;;;;;;24.16;49.32;101616.56;5095541;27;20026;-39
2022/08/30 09:48:54;;;;;;;;;;;;;;;24.16;49.32;101613.75;5120116;27;19927;-40
2022/08/30 09:54:12;;;;;;;;;;;;;;;24.17;49.16;101609.84;5155359;27;19945;-37
2022/08/30 09:57:03;;;;;;;;;;;;;;;24.16;48.99;101605.41;5133785;27;20097;-37
2022/08/30 10:02:35;;;;;;;;;;;;;;;24.14;49.14;101599.34;5156658;27;19929;-37
2022/08/30 10:05:05;;;;;;;;;;;;;;;24.15;49.15;101603.78;5140385;27;19973;-37
2022/08/30 10:07:35;;;;;;;;;;;;;;;24.15;49.23;101606.56;5152908;27;20022;-39
2022/08/30 10:10:07;;;;;;;;;;;;;;;24.15;49.19;101601.81;5131389;27;19923;-37
2022/08/30 10:12:53;;;;;;;;;;;;;;;24.15;49.08;101603.78;5152777;27;19923;-38
2022/08/30 10:15:20;;;;;;;;;;;;;;;24.16;49.08;101611.81;5136162;27;20396;-37
2022/08/30 10:17:49;;;;;;;;;;;;;;;24.15;49.09;101604.59;5152956;27;20017;-38
2022/08/30 10:20:26;;;;;;;;;;;;;;;24.16;49.07;101611.81;5130208;27;20021;-40
2022/08/30 10:22:55;;;;;;;;;;;;;;;24.15;49.08;101607.38;5152006;27;20018;-37
2022/08/30 10:25:29;;;;;;;;;;;;;;;24.15;49.85;101606.56;5127183;27;19934;-39
2022/08/30 10:27:57;;;;;;;;;;;;;;;24.15;49.55;101606.56;5151419;27;19931;-37
2022/08/30 10:30:23;;;;;;;;;;;;;;;24.16;49.21;101602.63;5153468;27;19935;-38
2022/08/30 10:32:54;;;;;;;;;;;;;;;24.14;49.37;101604.91;5149308;27;20011;-40
2022/08/30 10:35:21;;;;;;;;;;;;;;;24.14;49.29;101608.50;5155446;27;20031;-40
2022/08/30 10:37:48;;;;;;;;;;;;;;;24.16;48.96;101609.03;5132686;27;20035;-42
2022/08/30 10:43:08;;;;;;;;;;;;;;;24.14;48.58;101607.69;5133193;27;19938;-42
2022/08/30 10:45:34;;;;;;;;;;;;;;;24.15;48.82;101609.34;5127832;27;20025;-42
2022/08/30 10:48:20;;;;;;;;;;;;;;;24.16;48.82;101603.47;5126666;27;20010;-42
2022/08/30 10:50:48;;;;;;;;;;;;;;;24.16;48.89;101606.25;5128780;27;19931;-42
2022/08/30 10:53:16;;;;;;;;;;;;;;;24.18;48.97;101605.94;5150899;27;19981;-42
2022/08/30 10:55:44;;;;;;;;;;;;;;;24.17;48.75;101601.50;5135132;27;19987;-42
2022/08/30 10:58:16;;;;;;;;;;;;;;;24.16;48.88;101599.84;5154282;27;19937;-39
2022/08/30 11:01:01;;;;;;;;;;;;;;;24.17;48.68;101602.31;5156855;27;20020;-42
2022/08/30 11:03:41;;;;;;;;;;;;;;;24.06;47.58;101589.69;5136923;27;20308;-40
2022/08/30 11:06:09;;;;;;;;;;;;;;;24.14;47.95;101593.78;5149947;27;19951;-41
2022/08/30 11:08:55;;;;;;;;;;;;;;;24.17;48.12;101602.31;5146716;27;19989;-43
2022/08/30 11:11:40;;;;;;;;;;;;;;;24.17;48.36;101585.63;5130510;27;19970;-41
2022/08/30 11:14:06;;;;;;;;;;;;;;;24.18;48.29;101592.88;5119067;27;20039;-42
2022/08/30 11:16:33;;;;;;;;;;;;;;;24.20;48.16;101596.16;5116683;27;19974;-42
2022/08/30 11:18:58;;;;;;;;;;;;;;;24.19;47.67;101591.75;5138405;27;20420;-41
2022/08/30 11:21:34;;;;;;;;;;;;;;;24.20;47.92;101593.38;5136898;27;19934;-41
2022/08/30 11:24:08;;;;;;;;;;;;;;;24.21;48.03;101588.66;5136375;27;19986;-43
2022/08/30 11:29:40;;;;;;;;;;;;;;;24.24;48.42;101597.22;5171125;27;20037;-40
2022/08/30 11:34:54;;;;;;;;;;;;;;;24.23;48.61;101590.00;5163190;27;20014;-38
2022/08/30 11:37:38;;;;;;;;;;;;;;;24.22;48.39;101591.16;5141454;27;19923;-37
2022/08/30 11:40:08;;;;;;;;;;;;;;;24.23;48.33;101578.06;5161437;27;20002;-40
2022/08/30 11:42:46;;;;;;;;;;;;;;;24.22;48.52;101579.16;5161070;27;19923;-38
2022/08/30 11:45:34;;;;;;;;;;;;;;;24.23;48.34;101587.22;5138427;27;19924;-37
2022/08/30 11:48:02;;;;;;;;;;;;;;;24.23;48.84;101578.88;5126574;27;19923;-37
2022/08/30 11:50:49;;;;;;;;;;;;;;;24.23;48.68;101578.06;5121120;27;20384;-40
2022/08/30 11:53:20;;;;;;;;;;;;;;;24.24;48.86;101576.91;5126144;27;19969;-37
2022/08/30 11:55:53;;;;;;;;;;;;;;;24.25;48.50;101589.69;5143777;27;21122;-40
2022/08/30 11:58:39;;;;;;;;;;;;;;;24.24;48.65;101576.91;5142623;27;19980;-37
2022/08/30 12:04:04;;;;;;;;;;;;;;;24.25;48.58;101571.03;5167673;27;20011;-38
2022/08/30 12:06:50;;;;;;;;;;;;;;;24.24;48.63;101574.97;5163162;27;20057;-41
2022/08/30 12:09:19;;;;;;;;;;;;;;;24.24;48.89;101569.41;5148980;27;20136;-38
2022/08/30 12:11:50;;;;;;;;;;;;;;;24.24;48.82;101574.13;5164851;27;19963;-37
2022/08/30 12:14:36;;;;;;;;;;;;;;;24.24;48.78;101563.00;5147041;27;20038;-37
2022/08/30 12:19:51;;;;;;;;;;;;;;;24.25;48.66;101561.88;5150958;27;19931;-41
2022/08/30 12:22:17;;;;;;;;;;;;;;;24.25;48.71;101559.91;5161520;27;19922;-38
2022/08/30 12:24:44;;;;;;;;;;;;;;;24.25;48.35;101554.34;5165894;27;19934;-37
2022/08/30 12:27:20;;;;;;;;;;;;;;;24.25;48.53;101553.53;5147204;27;19945;-41
2022/08/30 12:29:54;;;;;;;;;;;;;;;24.25;48.69;101548.78;5148383;27;20262;-38
2022/08/30 12:32:21;;;;;;;;;;;;;;;24.26;48.44;101557.94;5147312;27;19942;-37
2022/08/30 12:34:54;;;;;;;;;;;;;;;24.26;48.68;101549.59;5148458;27;20384;-37
2022/08/30 12:37:22;;;;;;;;;;;;;;;24.26;48.56;101553.22;5164869;27;21120;-41
2022/08/30 12:39:52;;;;;;;;;;;;;;;24.26;48.42;101549.59;5165485;27;20044;-37
2022/08/30 12:42:21;;;;;;;;;;;;;;;24.25;48.20;101547.94;5147220;27;20692;-37
2022/08/30 12:44:47;;;;;;;;;;;;;;;24.26;48.35;101555.16;5144194;27;20330;-37
2022/08/30 12:47:12;;;;;;;;;;;;;;;24.26;48.66;101560.75;5162659;27;20277;-37
2022/08/30 12:49:40;;;;;;;;;;;;;;;24.24;48.44;101552.69;5162154;27;20362;-41
2022/08/30 12:52:27;;;;;;;;;;;;;;;24.26;48.28;101553.22;5166763;27;19923;-37
2022/08/30 12:54:53;;;;;;;;;;;;;;;24.25;48.08;101546.00;5150479;27;20398;-38
2022/08/30 12:57:34;;;;;;;;;;;;;;;24.25;47.85;101542.38;5165355;27;20411;-37
2022/08/30 13:00:00;;;;;;;;;;;;;;;24.25;47.77;101545.16;5147924;27;20029;-37
2022/08/30 13:02:41;;;;;;;;;;;;;;;24.23;47.88;101541.88;5165576;27;19923;-37
2022/08/30 13:05:26;;;;;;;;;;;;;;;24.24;47.80;101546.31;5148234;27;20021;-37